Time;durP1;ratioP1;P1;durP2;ratioP2;P2;SDS_P1;SDS_P2;PMS_P1;PMS_P2;Temp;Humidity;BMP_temperature;BMP_pressure;BME280_temperature;BME280_humidity;BME280_pressure;Samples;Min_cycle;Max_cycle;Signal;HPM_P1;HPM_P2
2022/07/03 00:01:20;;;;;;;6.93;4.10;;;18.50;99.90;;;;;;4916493;29;20323;-65
2022/07/03 00:03:45;;;;;;;4.03;3.50;;;18.40;99.90;;;;;;4909301;29;20415;-64
2022/07/03 00:06:11;;;;;;;4.95;3.85;;;18.40;99.90;;;;;;4913602;29;20043;-65
2022/07/03 00:08:37;;;;;;;4.00;3.60;;;18.20;99.90;;;;;;4916486;29;20036;-65
2022/07/03 00:11:04;;;;;;;4.28;3.50;;;18.20;99.90;;;;;;4903082;29;20429;-65
2022/07/03 00:13:30;;;;;;;5.93;3.80;;;18.00;99.90;;;;;;4908702;29;20044;-65
2022/07/03 00:15:55;;;;;;;6.45;4.18;;;17.90;99.90;;;;;;4917608;29;20036;-65
2022/07/03 00:18:21;;;;;;;4.70;4.20;;;17.80;99.90;;;;;;4917090;29;20048;-65
2022/07/03 00:20:59;;;;;;;5.43;4.30;;;17.90;99.90;;;;;;4909328;29;20044;-65
2022/07/03 00:23:28;;;;;;;5.00;4.20;;;18.00;99.90;;;;;;4914574;29;20040;-65
2022/07/03 00:25:55;;;;;;;5.72;4.40;;;18.00;99.90;;;;;;4917389;29;20072;-65
2022/07/03 00:28:23;;;;;;;7.18;4.88;;;18.00;99.90;;;;;;4906605;29;20386;-64
2022/07/03 00:30:51;;;;;;;8.68;4.80;;;18.00;99.90;;;;;;4915914;29;20048;-65
2022/07/03 00:33:18;;;;;;;6.30;4.85;;;17.90;99.90;;;;;;4917035;29;20058;-65
2022/07/03 00:35:44;;;;;;;5.22;4.57;;;17.80;99.90;;;;;;4908331;29;20043;-65
2022/07/03 00:38:11;;;;;;;5.45;4.18;;;17.70;99.90;;;;;;4912383;29;20438;-65
2022/07/03 00:40:37;;;;;;;7.15;4.90;;;17.70;99.90;;;;;;4916778;29;20044;-66
2022/07/03 00:43:04;;;;;;;7.03;4.90;;;17.60;99.90;;;;;;4916770;29;20036;-65
2022/07/03 00:45:33;;;;;;;6.32;5.03;;;17.50;99.90;;;;;;4911585;29;20039;-65
2022/07/03 00:48:00;;;;;;;5.55;4.13;;;17.60;99.90;;;;;;4907818;29;20114;-64
2022/07/03 00:50:34;;;;;;;5.97;4.10;;;17.40;99.90;;;;;;4916480;29;20179;-65
2022/07/03 00:53:01;;;;;;;8.25;4.88;;;17.20;99.90;;;;;;4910848;29;20032;-66
2022/07/03 00:55:27;;;;;;;5.03;4.40;;;17.10;99.90;;;;;;4910093;29;20047;-64
2022/07/03 00:57:55;;;;;;;7.15;5.05;;;16.90;99.90;;;;;;4916459;29;20127;-64
2022/07/03 01:00:21;;;;;;;7.40;5.30;;;16.90;99.90;;;;;;4916737;29;20566;-65
2022/07/03 01:02:55;;;;;;;9.45;5.85;;;16.80;99.90;;;;;;4905733;29;20645;-65
2022/07/03 01:05:24;;;;;;;8.77;5.40;;;16.80;99.90;;;;;;4915899;29;20048;-64
2022/07/03 01:08:01;;;;;;;6.88;5.68;;;16.80;99.90;;;;;;4915548;29;20051;-65
2022/07/03 01:10:43;;;;;;;7.82;6.15;;;16.80;99.90;;;;;;4905845;29;20044;-65
2022/07/03 01:13:26;;;;;;;8.55;5.93;;;16.90;99.90;;;;;;4911269;29;20111;-65
2022/07/03 01:16:21;;;;;;;7.82;6.43;;;16.90;99.90;;;;;;4896507;29;20040;-65
2022/07/03 01:18:53;;;;;;;9.25;6.70;;;16.90;99.90;;;;;;4902342;29;20315;-65
2022/07/03 01:21:35;;;;;;;7.35;6.28;;;16.90;99.90;;;;;;4910786;29;20036;-65
2022/07/03 01:24:13;;;;;;;7.20;6.35;;;16.80;99.90;;;;;;4910468;29;20548;-65
2022/07/03 01:26:40;;;;;;;8.95;6.00;;;16.80;99.90;;;;;;4905891;29;20064;-65
2022/07/03 01:29:18;;;;;;;6.70;6.00;;;16.60;99.90;;;;;;4915172;29;20107;-64
2022/07/03 01:31:45;;;;;;;7.03;6.35;;;16.60;99.90;;;;;;4915994;29;20059;-65
2022/07/03 01:34:16;;;;;;;10.43;7.95;;;16.50;99.90;;;;;;4916015;29;20040;-65
2022/07/03 01:36:43;;;;;;;8.70;7.80;;;16.50;99.90;;;;;;4908689;29;20072;-65
2022/07/03 01:39:12;;;;;;;9.60;7.55;;;16.40;99.90;;;;;;4911022;29;20351;-64
2022/07/03 01:41:37;;;;;;;7.93;7.13;;;16.40;99.90;;;;;;4914038;29;20052;-65
2022/07/03 01:44:05;;;;;;;8.57;7.40;;;16.30;99.90;;;;;;4906365;29;20050;-64
2022/07/03 01:46:32;;;;;;;8.43;6.10;;;16.20;99.90;;;;;;4913585;29;20044;-65
2022/07/03 01:48:59;;;;;;;8.70;7.28;;;16.10;99.90;;;;;;4915927;29;20040;-65
2022/07/03 01:51:26;;;;;;;7.07;6.32;;;16.10;99.90;;;;;;4908353;29;20444;-65
2022/07/03 01:53:53;;;;;;;7.38;6.68;;;16.10;99.90;;;;;;4901681;29;20040;-65
2022/07/03 01:56:21;;;;;;;6.32;5.72;;;16.00;99.90;;;;;;4915242;29;20469;-65
2022/07/03 01:58:48;;;;;;;6.45;5.25;;;16.00;99.90;;;;;;4909188;29;20050;-64
2022/07/03 02:01:30;;;;;;;6.80;4.70;;;15.90;99.90;;;;;;4898536;29;20068;-65
2022/07/03 02:04:22;;;;;;;5.28;4.50;;;15.80;99.90;;;;;;4908990;29;20103;-65
2022/07/03 02:07:19;;;;;;;5.57;4.97;;;15.70;99.90;;;;;;4915508;29;20044;-65
2022/07/03 02:09:59;;;;;;;13.52;2.60;;;15.60;99.90;;;;;;4905835;29;20044;-65
2022/07/03 02:12:31;;;;;;;5.25;4.38;;;15.50;99.90;;;;;;4913331;29;20044;-65
2022/07/03 02:15:07;;;;;;;4.90;4.45;;;15.40;99.90;;;;;;4915204;29;20127;-65
2022/07/03 02:17:42;;;;;;;4.30;3.90;;;15.40;99.90;;;;;;4905947;29;20064;-65
2022/07/03 02:20:09;;;;;;;6.43;3.72;;;15.30;99.90;;;;;;4915170;29;20048;-65
2022/07/03 02:22:38;;;;;;;4.53;3.50;;;15.30;99.90;;;;;;4915431;29;20044;-65
2022/07/03 02:25:07;;;;;;;6.65;4.50;;;15.20;99.90;;;;;;4906541;29;20040;-65
2022/07/03 02:27:57;;;;;;;7.82;5.78;;;15.20;99.90;;;;;;4922112;29;20493;-65
2022/07/03 02:30:24;;;;;;;6.50;5.90;;;15.20;99.90;;;;;;4915572;29;20123;-65
2022/07/03 02:32:51;;;;;;;5.30;4.80;;;15.10;99.90;;;;;;4910372;29;20493;-65
2022/07/03 02:35:24;;;;;;;6.68;5.28;;;15.10;99.90;;;;;;4907786;29;20054;-66
2022/07/03 02:38:08;;;;;;;32.08;3.70;;;15.10;99.90;;;;;;4914879;29;20032;-63
2022/07/03 02:40:49;;;;;;;7.20;5.00;;;14.90;99.90;;;;;;4915376;29;20627;-65
2022/07/03 02:43:16;;;;;;;7.25;5.03;;;14.80;99.90;;;;;;4906338;29;20501;-62
2022/07/03 02:49:08;;;;;;;10.20;8.35;;;14.80;99.90;;;;;;4908637;29;20057;-65
2022/07/03 02:51:37;;;;;;;13.95;10.85;;;14.80;99.90;;;;;;4900241;29;20041;-65
2022/07/03 02:54:11;;;;;;;13.35;12.05;;;14.80;99.90;;;;;;4914678;29;20040;-65
2022/07/03 02:56:59;;;;;;;14.15;12.60;;;14.80;99.90;;;;;;4915064;29;20036;-65
2022/07/03 02:59:25;;;;;;;16.27;13.32;;;14.90;99.90;;;;;;4904526;29;20044;-64
2022/07/03 03:02:13;;;;;;;12.90;11.60;;;14.90;99.90;;;;;;4910365;29;20095;-65
2022/07/03 03:04:43;;;;;;;12.88;11.57;;;14.90;99.90;;;;;;4886548;29;20131;-64
2022/07/03 03:07:14;;;;;;;13.48;11.88;;;14.80;99.90;;;;;;4902906;29;20073;-64
2022/07/03 03:09:42;;;;;;;13.88;12.35;;;14.80;99.90;;;;;;4914021;29;20108;-65
2022/07/03 03:12:09;;;;;;;13.27;11.98;;;14.70;99.90;;;;;;4914830;29;20123;-65
2022/07/03 03:14:47;;;;;;;92.38;10.25;;;14.80;99.90;;;;;;4906106;29;20048;-65
2022/07/03 03:17:20;;;;;;;7.68;6.35;;;14.70;99.90;;;;;;4914055;29;20040;-64
2022/07/03 03:19:51;;;;;;;14.68;13.13;;;14.50;99.90;;;;;;4914789;29;20040;-64
2022/07/03 03:22:25;;;;;;;17.60;14.57;;;14.50;99.90;;;;;;4907472;29;20049;-65
2022/07/03 03:24:52;;;;;;;20.55;9.35;;;14.60;99.90;;;;;;4903958;29;20051;-65
2022/07/03 03:27:19;;;;;;;15.88;14.35;;;14.40;99.90;;;;;;4914398;29;20457;-63
2022/07/03 03:29:44;;;;;;;16.42;13.60;;;14.40;99.90;;;;;;4914797;29;20485;-65
2022/07/03 03:32:11;;;;;;;14.35;12.95;;;14.50;99.90;;;;;;4907939;29;20051;-65
2022/07/03 03:34:40;;;;;;;15.10;13.65;;;14.60;99.90;;;;;;4914300;29;20098;-63
2022/07/03 03:37:06;;;;;;;18.08;13.35;;;14.70;99.90;;;;;;4915001;29;20048;-63
2022/07/03 03:39:32;;;;;;;14.18;12.68;;;14.80;99.90;;;;;;4904615;29;20045;-63
2022/07/03 03:42:00;;;;;;;14.35;12.95;;;14.90;99.90;;;;;;4901713;29;20060;-63
2022/07/03 03:44:26;;;;;;;15.00;13.40;;;15.00;99.90;;;;;;4915399;29;20505;-63
2022/07/03 03:46:52;;;;;;;15.07;13.57;;;15.00;99.90;;;;;;4907712;29;20054;-63
2022/07/03 03:49:18;;;;;;;16.13;12.98;;;15.10;99.90;;;;;;4916281;29;20123;-64
2022/07/03 03:51:44;;;;;;;14.35;12.85;;;15.20;99.90;;;;;;4912947;29;20047;-63
2022/07/03 03:54:10;;;;;;;12.93;11.73;;;15.30;99.90;;;;;;4901146;29;20115;-63
2022/07/03 03:56:35;;;;;;;16.00;13.27;;;15.30;99.90;;;;;;4911316;29;20132;-63
2022/07/03 03:59:01;;;;;;;13.07;11.77;;;15.40;99.90;;;;;;4916194;29;20067;-64
2022/07/03 04:01:26;;;;;;;14.40;12.90;;;15.40;99.90;;;;;;4917091;29;20060;-63
2022/07/03 04:03:52;;;;;;;15.00;13.18;;;15.40;99.90;;;;;;4916623;29;20134;-63
2022/07/03 04:06:19;;;;;;;14.32;12.50;;;15.50;99.90;;;;;;4910910;29;20115;-63
2022/07/03 04:08:45;;;;;;;14.50;12.98;;;15.50;99.90;;;;;;4909379;29;20128;-63
2022/07/03 04:11:10;;;;;;;14.68;13.18;;;15.70;99.90;;;;;;4917474;29;20140;-63
2022/07/03 04:13:36;;;;;;;16.98;13.32;;;15.70;99.90;;;;;;4906655;29;20041;-64
2022/07/03 04:16:02;;;;;;;14.68;13.13;;;15.70;99.90;;;;;;4913578;29;20051;-63
2022/07/03 04:18:27;;;;;;;14.32;12.82;;;15.70;99.90;;;;;;4917287;29;20134;-63
2022/07/03 04:20:53;;;;;;;14.82;13.30;;;15.70;99.90;;;;;;4912526;29;20095;-63
2022/07/03 04:23:19;;;;;;;15.10;13.50;;;15.80;99.90;;;;;;4916621;29;20046;-63
2022/07/03 04:25:45;;;;;;;15.27;13.77;;;15.70;99.90;;;;;;4916900;29;20123;-63
2022/07/03 04:28:11;;;;;;;17.30;13.73;;;15.80;99.90;;;;;;4917201;29;20065;-63
2022/07/03 04:30:36;;;;;;;15.45;13.23;;;15.90;99.90;;;;;;4898362;29;20147;-63
2022/07/03 04:33:02;;;;;;;14.70;13.02;;;15.80;99.90;;;;;;4910735;29;20174;-63
2022/07/03 04:35:28;;;;;;;13.80;12.50;;;15.80;99.90;;;;;;4917099;29;20055;-63
2022/07/03 04:37:54;;;;;;;17.73;13.57;;;15.80;99.90;;;;;;4916692;29;20036;-64
2022/07/03 04:40:19;;;;;;;16.80;13.43;;;15.90;99.90;;;;;;4906808;29;20047;-63
2022/07/03 04:42:45;;;;;;;16.38;14.40;;;15.80;99.90;;;;;;4916175;29;20726;-64
2022/07/03 04:45:10;;;;;;;16.35;14.30;;;15.80;99.90;;;;;;4914928;29;20085;-64
2022/07/03 04:47:36;;;;;;;16.20;14.30;;;15.80;99.90;;;;;;4897085;29;20070;-63
2022/07/03 04:50:02;;;;;;;15.10;13.45;;;15.80;99.90;;;;;;4916471;29;20131;-65
2022/07/03 04:52:28;;;;;;;15.15;13.55;;;15.90;99.90;;;;;;4916583;29;20127;-64
2022/07/03 04:54:53;;;;;;;16.35;13.45;;;15.90;99.90;;;;;;4916365;29;20620;-65
2022/07/03 04:57:19;;;;;;;17.17;14.05;;;15.90;99.90;;;;;;4910905;29;20075;-65
2022/07/03 04:59:46;;;;;;;15.23;13.70;;;15.90;99.90;;;;;;4914608;29;20052;-64
2022/07/03 05:02:12;;;;;;;15.57;13.70;;;15.90;99.90;;;;;;4911424;29;20048;-64
2022/07/03 05:04:37;;;;;;;16.05;13.88;;;15.90;99.90;;;;;;4911240;29;20047;-65
2022/07/03 05:07:03;;;;;;;15.60;13.82;;;15.90;99.90;;;;;;4916100;29;20083;-65
2022/07/03 05:09:29;;;;;;;17.88;14.55;;;15.90;99.90;;;;;;4916490;29;20178;-65
2022/07/03 05:11:55;;;;;;;18.73;15.32;;;15.80;99.90;;;;;;4904104;29;20086;-65
2022/07/03 05:14:20;;;;;;;16.70;15.02;;;15.70;99.90;;;;;;4911585;29;20055;-65
2022/07/03 05:16:46;;;;;;;18.10;16.30;;;15.70;99.90;;;;;;4916805;29;20028;-65
2022/07/03 05:19:12;;;;;;;17.75;15.95;;;15.70;99.90;;;;;;4898845;29;20511;-65
2022/07/03 05:21:37;;;;;;;17.35;15.65;;;15.70;99.90;;;;;;4906696;29;20142;-65
2022/07/03 05:24:03;;;;;;;18.88;16.88;;;15.80;99.90;;;;;;4915885;29;20063;-65
2022/07/03 05:26:29;;;;;;;20.25;17.05;;;15.80;99.90;;;;;;4914233;29;20059;-65
2022/07/03 05:28:55;;;;;;;20.10;17.45;;;15.90;99.90;;;;;;4901800;29;20446;-65
2022/07/03 05:31:20;;;;;;;17.58;15.73;;;15.90;99.90;;;;;;4912181;29;20040;-65
2022/07/03 05:33:46;;;;;;;16.83;15.13;;;16.10;99.90;;;;;;4916386;29;20036;-65
2022/07/03 05:36:12;;;;;;;19.20;17.13;;;16.20;99.90;;;;;;4904463;29;20045;-65
2022/07/03 05:41:21;;;;;;;18.70;16.85;;;16.40;99.90;;;;;;4915246;29;20051;-65
2022/07/03 05:43:47;;;;;;;19.80;17.70;;;16.50;99.90;;;;;;4913763;29;20382;-65
2022/07/03 05:46:13;;;;;;;18.35;16.48;;;16.60;99.90;;;;;;4905229;29;20690;-63
2022/07/03 05:48:39;;;;;;;18.20;16.13;;;16.70;99.90;;;;;;4914494;29;20040;-63
2022/07/03 05:51:04;;;;;;;20.02;16.70;;;16.80;99.90;;;;;;4915785;29;20058;-64
2022/07/03 05:53:30;;;;;;;17.38;15.77;;;16.90;99.90;;;;;;4909024;29;20040;-63
2022/07/03 05:55:57;;;;;;;19.88;16.63;;;17.00;99.90;;;;;;4914953;29;20663;-63
2022/07/03 05:58:22;;;;;;;19.02;17.05;;;17.00;99.90;;;;;;4915633;29;20040;-63
2022/07/03 06:00:48;;;;;;;19.25;14.70;;;17.20;99.90;;;;;;4914520;29;20124;-64
2022/07/03 06:03:14;;;;;;;15.10;13.70;;;17.30;99.90;;;;;;4906948;29;20039;-63
2022/07/03 06:05:39;;;;;;;18.20;14.75;;;17.40;99.90;;;;;;4914615;29;20079;-63
2022/07/03 06:08:05;;;;;;;16.50;14.88;;;17.40;99.90;;;;;;4915026;29;20408;-63
2022/07/03 06:10:32;;;;;;;16.40;14.30;;;17.50;99.90;;;;;;4901506;29;20461;-63
2022/07/03 06:12:58;;;;;;;16.20;14.57;;;17.60;99.90;;;;;;4907511;29;20050;-63
2022/07/03 06:15:23;;;;;;;14.07;12.68;;;17.80;99.90;;;;;;4914714;29;20119;-64
2022/07/03 06:17:49;;;;;;;14.18;12.30;;;17.90;99.90;;;;;;4915577;29;20044;-64
2022/07/03 06:20:15;;;;;;;13.90;12.50;;;18.00;99.90;;;;;;4914402;29;20044;-64
2022/07/03 06:22:41;;;;;;;14.75;11.32;;;18.20;99.90;;;;;;4903941;29;20047;-65
2022/07/03 06:25:07;;;;;;;10.68;9.57;;;18.30;99.90;;;;;;4911567;29;20048;-63
2022/07/03 06:27:33;;;;;;;12.85;10.45;;;18.30;99.90;;;;;;4904608;29;20043;-65
2022/07/03 06:29:59;;;;;;;11.88;9.35;;;18.50;99.90;;;;;;4914821;29;20493;-65
2022/07/03 06:32:25;;;;;;;9.48;8.40;;;18.60;99.90;;;;;;4915086;29;20095;-64
2022/07/03 06:34:51;;;;;;;11.80;9.30;;;18.60;99.90;;;;;;4913057;29;20044;-64
2022/07/03 06:37:16;;;;;;;9.60;8.60;;;18.70;99.90;;;;;;4908848;29;20043;-65
2022/07/03 06:39:42;;;;;;;8.82;7.15;;;18.80;99.90;;;;;;4913029;29;20123;-65
2022/07/03 06:42:08;;;;;;;9.02;6.70;;;18.90;99.90;;;;;;4911055;29;20048;-65
2022/07/03 06:44:34;;;;;;;9.63;7.50;;;19.00;99.90;;;;;;4902340;29;20051;-65
2022/07/03 06:47:03;;;;;;;7.57;6.32;;;19.20;99.90;;;;;;4911068;29;20051;-64
2022/07/03 06:49:29;;;;;;;11.50;6.80;;;19.40;99.90;;;;;;4910915;29;20059;-64
2022/07/03 06:51:55;;;;;;;11.25;6.93;;;19.50;99.90;;;;;;4905230;29;20645;-65
2022/07/03 06:54:20;;;;;;;10.50;7.18;;;19.60;99.90;;;;;;4905308;29;20770;-66
2022/07/03 06:56:46;;;;;;;11.63;7.63;;;19.60;99.90;;;;;;4910410;29;20040;-65
2022/07/03 06:59:11;;;;;;;8.55;7.65;;;19.60;99.90;;;;;;4902865;29;20127;-64
2022/07/03 07:01:37;;;;;;;8.73;7.70;;;19.60;99.90;;;;;;4904184;29;20055;-65
2022/07/03 07:04:03;;;;;;;8.68;7.20;;;19.70;99.90;;;;;;4910857;29;20044;-65
2022/07/03 07:06:29;;;;;;;9.00;7.20;;;19.70;99.90;;;;;;4911089;29;20389;-65
2022/07/03 07:08:55;;;;;;;10.27;6.82;;;19.80;99.90;;;;;;4907513;29;20048;-67
2022/07/03 07:11:20;;;;;;;7.07;6.38;;;19.80;99.90;;;;;;4909136;29;20131;-67
2022/07/03 07:13:46;;;;;;;9.48;6.13;;;19.90;99.90;;;;;;4913839;29;20051;-67
2022/07/03 07:16:12;;;;;;;7.43;6.28;;;19.90;99.90;;;;;;4910209;29;20745;-68
2022/07/03 07:18:40;;;;;;;8.25;6.05;;;19.90;99.90;;;;;;4912248;29;20044;-67
2022/07/03 07:21:06;;;;;;;7.28;5.93;;;19.90;99.90;;;;;;4909849;29;20040;-67
2022/07/03 07:23:32;;;;;;;8.43;5.78;;;19.90;99.90;;;;;;4902168;29;20055;-66
2022/07/03 07:25:57;;;;;;;6.28;5.07;;;20.00;99.90;;;;;;4917172;29;20232;-66
2022/07/03 07:28:23;;;;;;;7.38;4.40;;;20.00;99.90;;;;;;4911600;29;20044;-66
2022/07/03 07:30:49;;;;;;;8.98;4.30;;;20.00;99.90;;;;;;4911329;29;20040;-67
2022/07/03 07:33:14;;;;;;;6.40;4.70;;;20.00;99.90;;;;;;4906564;29;20037;-67
2022/07/03 07:35:40;;;;;;;5.72;4.43;;;20.00;99.90;;;;;;4914958;29;20048;-66
2022/07/03 07:38:06;;;;;;;9.70;4.90;;;20.00;99.90;;;;;;4916803;29;20044;-66
2022/07/03 07:40:31;;;;;;;6.30;4.80;;;20.10;99.90;;;;;;4917148;29;20044;-66
2022/07/03 07:42:57;;;;;;;7.65;4.57;;;20.10;99.90;;;;;;4906429;29;20547;-67
2022/07/03 07:45:22;;;;;;;6.78;4.00;;;20.10;99.90;;;;;;4913578;29;20042;-68
2022/07/03 07:47:48;;;;;;;6.40;3.75;;;20.20;99.90;;;;;;4909922;29;20046;-68
2022/07/03 07:50:14;;;;;;;4.90;3.40;;;20.20;99.90;;;;;;4909925;29;20056;-67
2022/07/03 07:52:40;;;;;;;6.53;4.00;;;20.20;99.90;;;;;;4911354;29;20067;-67
2022/07/03 07:55:07;;;;;;;5.38;3.70;;;20.30;99.90;;;;;;4907324;29;20040;-67
2022/07/03 07:57:39;;;;;;;5.90;4.10;;;20.30;99.90;;;;;;4905009;29;20050;-66
2022/07/03 08:00:16;;;;;;;6.13;4.10;;;20.30;99.90;;;;;;4907490;29;20040;-66
2022/07/03 08:05:36;;;;;;;6.80;4.80;;;20.40;99.90;;;;;;4934105;29;20448;-66
2022/07/03 08:08:02;;;;;;;6.70;4.55;;;20.40;99.90;;;;;;4910896;29;20055;-65
2022/07/03 08:10:28;;;;;;;6.93;4.45;;;20.50;99.90;;;;;;4909382;29;20449;-66
2022/07/03 08:12:53;;;;;;;7.28;4.53;;;20.60;99.90;;;;;;4938836;29;20100;-66
2022/07/03 08:15:19;;;;;;;5.43;3.95;;;20.70;99.90;;;;;;4905166;29;20064;-66
2022/07/03 08:17:45;;;;;;;5.20;4.30;;;20.80;99.90;;;;;;4909290;29;20040;-66
2022/07/03 08:20:10;;;;;;;9.50;4.15;;;21.00;99.90;;;;;;4916210;29;20091;-67
2022/07/03 08:22:36;;;;;;;6.78;4.55;;;21.00;99.90;;;;;;4898159;29;20044;-68
2022/07/03 08:25:02;;;;;;;7.00;5.00;;;21.10;99.90;;;;;;4905797;29;20178;-67
2022/07/03 08:27:28;;;;;;;5.68;4.05;;;21.10;99.90;;;;;;4916098;29;20131;-67
2022/07/03 08:29:53;;;;;;;9.82;4.40;;;21.10;99.90;;;;;;4915335;29;20643;-67
2022/07/03 08:32:19;;;;;;;5.57;3.55;;;21.00;99.90;;;;;;4912416;29;20071;-67
2022/07/03 08:34:44;;;;;;;5.22;2.58;;;21.00;99.90;;;;;;4908809;29;20043;-66
2022/07/03 08:37:10;;;;;;;5.20;2.70;;;21.00;99.90;;;;;;4914599;29;20040;-68
2022/07/03 08:39:36;;;;;;;3.20;2.30;;;21.00;99.90;;;;;;4910571;29;20132;-67
2022/07/03 08:42:02;;;;;;;3.50;2.40;;;21.00;99.90;;;;;;4904173;29;20059;-66
2022/07/03 08:44:28;;;;;;;4.55;2.75;;;21.00;99.90;;;;;;4914335;29;20044;-67
2022/07/03 08:46:56;;;;;;;3.70;2.70;;;21.10;99.90;;;;;;4914848;29;20425;-68
2022/07/03 08:49:22;;;;;;;5.15;2.92;;;21.20;99.90;;;;;;4907204;29;20049;-66
2022/07/03 08:51:49;;;;;;;8.00;3.30;;;21.20;99.90;;;;;;4908342;29;20360;-67
2022/07/03 08:54:15;;;;;;;5.65;3.40;;;21.30;99.90;;;;;;4914164;29;20044;-66
2022/07/03 08:56:42;;;;;;;6.75;3.60;;;21.50;99.90;;;;;;4905430;29;20047;-67
2022/07/03 08:59:08;;;;;;;6.78;3.30;;;21.50;99.90;;;;;;4914782;29;20048;-67
2022/07/03 09:01:34;;;;;;;4.88;2.72;;;21.50;99.90;;;;;;4914170;29;20508;-68
2022/07/03 09:04:01;;;;;;;5.13;3.65;;;21.70;99.90;;;;;;4911699;29;20033;-67
2022/07/03 09:06:33;;;;;;;7.07;3.45;;;21.70;99.90;;;;;;4912439;29;20063;-67
2022/07/03 09:09:02;;;;;;;6.22;3.40;;;21.60;99.90;;;;;;4914089;29;20063;-67
2022/07/03 09:11:28;;;;;;;5.28;3.22;;;21.70;99.90;;;;;;4915102;29;20047;-68
2022/07/03 09:13:53;;;;;;;6.45;2.83;;;21.60;99.90;;;;;;4911276;29;20067;-66
2022/07/03 09:16:19;;;;;;;4.22;2.50;;;21.60;99.90;;;;;;4912295;29;20466;-67
2022/07/03 09:18:45;;;;;;;3.60;2.03;;;21.50;99.90;;;;;;4915318;29;20044;-66
2022/07/03 09:21:12;;;;;;;3.75;2.00;;;21.60;99.90;;;;;;4906010;29;20047;-66
2022/07/03 09:23:42;;;;;;;3.65;2.10;;;21.80;99.90;;;;;;4912511;29;20052;-66
2022/07/03 09:26:13;;;;;;;3.53;2.00;;;21.90;99.90;;;;;;4920124;29;20066;-67
2022/07/03 09:28:44;;;;;;;;;;;21.90;99.90;;;;;;4917763;29;20060;-66
2022/07/03 09:31:15;;;;;;;4.60;2.47;;;21.90;99.90;;;;;;4900261;29;19978;-66
2022/07/03 09:33:58;;;;;;;5.30;2.60;;;21.90;99.90;;;;;;4914329;29;20048;-66
2022/07/03 09:36:44;;;;;;;5.15;2.30;;;21.90;99.90;;;;;;4913706;29;20047;-66
2022/07/03 09:39:30;;;;;;;3.58;1.70;;;22.10;99.90;;;;;;4910590;29;20044;-67
2022/07/03 09:42:07;;;;;;;3.95;1.90;;;22.30;99.90;;;;;;4908796;29;20044;-67
2022/07/03 09:44:36;;;;;;;4.38;1.70;;;22.30;99.90;;;;;;4911806;29;20099;-66
2022/07/03 09:47:22;;;;;;;3.55;1.70;;;22.20;99.90;;;;;;4906869;29;20063;-66
2022/07/03 09:50:05;;;;;;;3.00;1.92;;;22.30;99.90;;;;;;4904063;29;20052;-66
2022/07/03 09:52:38;;;;;;;6.43;2.22;;;22.30;99.90;;;;;;4911708;29;20048;-66
2022/07/03 09:55:09;;;;;;;3.80;1.70;;;22.30;99.90;;;;;;4908340;29;20196;-66
2022/07/03 09:57:55;;;;;;;4.22;2.20;;;22.40;99.90;;;;;;4904291;29;20156;-66
2022/07/03 10:00:23;;;;;;;3.42;2.08;;;22.40;99.90;;;;;;4897895;29;20492;-66
2022/07/03 10:02:59;;;;;;;7.10;2.25;;;22.50;99.90;;;;;;4908649;29;20126;-66
2022/07/03 10:05:33;;;;;;;2.95;1.40;;;22.70;99.90;;;;;;4909600;29;20424;-66
2022/07/03 10:08:07;;;;;;;2.65;1.30;;;22.40;98.30;;;;;;4909850;29;20055;-67
2022/07/03 10:10:34;;;;;;;3.90;1.20;;;22.10;97.80;;;;;;4906662;29;20040;-66
2022/07/03 10:13:01;;;;;;;3.55;1.45;;;21.90;98.50;;;;;;4903206;29;20058;-66
2022/07/03 10:15:28;;;;;;;2.40;1.20;;;21.90;99.50;;;;;;4911244;29;20044;-66
2022/07/03 10:17:56;;;;;;;2.63;1.55;;;22.20;99.90;;;;;;4911167;29;20044;-66
2022/07/03 10:20:28;;;;;;;2.83;1.40;;;22.50;99.90;;;;;;4897770;29;20052;-67
2022/07/03 10:22:54;;;;;;;2.70;1.60;;;22.70;99.60;;;;;;4905276;29;20170;-66
2022/07/03 10:25:21;;;;;;;3.45;1.63;;;22.90;99.50;;;;;;4911508;29;20520;-66
2022/07/03 10:27:47;;;;;;;2.45;1.42;;;23.00;99.90;;;;;;4910189;29;20091;-65
2022/07/03 10:30:19;;;;;;;2.30;1.23;;;23.20;99.70;;;;;;4905598;29;20080;-66
2022/07/03 10:32:52;;;;;;;1.60;1.15;;;23.20;96.60;;;;;;4910500;29;20043;-66
2022/07/03 10:35:25;;;;;;;3.00;1.05;;;23.00;95.70;;;;;;4907376;29;20107;-67
2022/07/03 10:38:02;;;;;;;2.10;1.38;;;23.10;95.80;;;;;;4904154;29;20090;-66
2022/07/03 10:46:22;;;;;;;3.72;1.20;;;23.20;94.50;;;;;;4901242;29;20051;-66
2022/07/03 10:48:59;;;;;;;2.00;1.10;;;23.20;95.00;;;;;;4903266;29;20127;-66
2022/07/03 10:51:26;;;;;;;1.60;1.33;;;23.30;95.40;;;;;;4910766;29;20037;-66
2022/07/03 10:54:16;;;;;;;2.85;1.45;;;23.20;96.80;;;;;;4902787;29;20574;-65
2022/07/03 10:57:01;;;;;;;3.85;1.42;;;23.20;94.30;;;;;;4912810;29;20449;-66
2022/07/03 10:59:36;;;;;;;1.77;1.30;;;23.00;96.30;;;;;;4901424;29;20052;-66
2022/07/03 11:02:20;;;;;;;5.25;1.40;;;23.30;95.90;;;;;;4905785;29;20493;-67
2022/07/03 11:04:58;;;;;;;1.75;1.17;;;23.90;99.00;;;;;;4899750;29;20040;-67
2022/07/03 11:07:28;;;;;;;2.60;1.30;;;24.00;95.20;;;;;;4913809;29;20055;-67
2022/07/03 11:10:10;;;;;;;1.42;1.20;;;23.90;95.70;;;;;;4910160;29;20056;-67
2022/07/03 11:12:57;;;;;;;3.80;1.60;;;23.90;97.70;;;;;;4914547;29;20394;-67
2022/07/03 11:15:53;;;;;;;3.28;1.60;;;24.00;95.70;;;;;;4916061;29;20047;-67
2022/07/03 11:18:34;;;;;;;2.55;1.38;;;24.10;94.90;;;;;;4905852;29;20691;-67
2022/07/03 11:21:12;;;;;;;;;;;24.20;95.80;;;;;;4910042;29;20099;-67
2022/07/03 11:24:01;;;;;;;3.13;1.40;;;24.50;95.60;;;;;;4916174;29;19947;-67
2022/07/03 11:26:26;;;;;;;1.85;1.40;;;24.70;97.50;;;;;;4906178;29;20469;-66
2022/07/03 11:28:53;;;;;;;2.65;1.63;;;24.30;96.40;;;;;;4916920;29;20052;-67
2022/07/03 11:31:22;;;;;;;2.47;1.75;;;24.00;96.10;;;;;;4916645;29;20103;-67
2022/07/03 11:33:53;;;;;;;3.75;2.22;;;24.10;96.10;;;;;;4917631;29;20040;-66
2022/07/03 11:36:21;;;;;;;2.25;1.50;;;24.10;95.60;;;;;;4911880;29;20043;-66
2022/07/03 11:38:59;;;;;;;3.72;1.60;;;24.10;96.40;;;;;;4928311;29;20051;-66
2022/07/03 11:41:44;;;;;;;4.68;1.73;;;24.10;97.20;;;;;;4936148;29;20445;-66
2022/07/03 11:44:14;;;;;;;4.13;1.60;;;24.30;96.70;;;;;;4909009;29;20710;-67
2022/07/03 11:46:40;;;;;;;3.22;1.50;;;24.50;96.90;;;;;;4915784;29;20046;-67
2022/07/03 11:49:13;;;;;;;1.80;1.30;;;24.30;96.50;;;;;;4897441;29;20075;-67
2022/07/03 11:52:00;;;;;;;3.05;1.70;;;24.20;97.10;;;;;;4914099;29;20055;-66
2022/07/03 11:54:30;;;;;;;2.38;1.40;;;24.50;94.70;;;;;;4915619;29;20066;-67
2022/07/03 11:56:56;;;;;;;2.78;1.40;;;24.50;95.90;;;;;;4914427;29;20123;-68
2022/07/03 11:59:22;;;;;;;2.55;1.30;;;24.70;96.20;;;;;;4905227;29;20112;-66
2022/07/03 12:01:48;;;;;;;2.33;1.40;;;24.60;94.30;;;;;;4909423;29;20075;-67
2022/07/03 12:04:15;;;;;;;2.45;1.40;;;24.20;94.50;;;;;;4915927;29;20461;-66
2022/07/03 12:06:40;;;;;;;1.40;1.30;;;24.20;95.10;;;;;;4911449;29;20430;-67
2022/07/03 12:09:15;;;;;;;1.85;1.33;;;24.50;96.80;;;;;;4908982;29;20049;-67
2022/07/03 12:11:41;;;;;;;2.00;1.25;;;24.70;95.70;;;;;;4910753;29;20126;-67
2022/07/03 12:14:07;;;;;;;2.17;1.20;;;24.70;95.00;;;;;;4910796;29;20037;-67
2022/07/03 12:16:34;;;;;;;1.67;1.05;;;24.20;93.80;;;;;;4908694;29;20040;-68
2022/07/03 12:19:05;;;;;;;2.78;1.25;;;24.30;93.40;;;;;;4905650;29;20492;-66
2022/07/03 12:21:38;;;;;;;2.05;1.27;;;24.30;93.60;;;;;;4908837;29;20656;-67
2022/07/03 12:24:12;;;;;;;1.42;1.30;;;24.20;93.30;;;;;;4908615;29;20044;-67
2022/07/03 12:26:38;;;;;;;2.60;1.35;;;24.20;95.40;;;;;;4928279;29;20780;-68
2022/07/03 12:29:09;;;;;;;3.67;1.48;;;24.40;94.40;;;;;;4914386;29;20040;-68
2022/07/03 12:31:42;;;;;;;3.65;1.30;;;24.60;94.00;;;;;;4914488;29;20471;-67
2022/07/03 12:34:10;;;;;;;4.63;1.50;;;25.10;95.90;;;;;;4904940;29;20040;-67
2022/07/03 12:36:36;;;;;;;4.05;1.50;;;25.30;94.60;;;;;;4914017;29;20043;-67
2022/07/03 12:39:02;;;;;;;4.50;1.50;;;25.50;95.00;;;;;;4915766;29;20540;-67
2022/07/03 12:41:28;;;;;;;2.78;1.30;;;25.80;94.80;;;;;;4915833;29;20048;-67
2022/07/03 12:43:55;;;;;;;2.08;1.30;;;25.70;94.30;;;;;;4913198;29;20055;-68
2022/07/03 12:46:22;;;;;;;2.70;1.30;;;25.30;93.60;;;;;;4909280;29;20564;-68
2022/07/03 12:48:53;;;;;;;2.00;1.48;;;25.30;93.60;;;;;;4905057;29;20048;-67
2022/07/03 12:51:43;;;;;;;3.50;1.60;;;25.00;95.00;;;;;;4913572;29;20070;-67
2022/07/03 12:54:33;;;;;;;3.10;1.63;;;24.40;94.30;;;;;;4907100;29;20409;-68
2022/07/03 13:00:19;;;;;;;2.88;1.48;;;23.50;96.80;;;;;;4909424;29;20088;-69
2022/07/03 13:02:48;;;;;;;3.45;1.60;;;23.10;97.10;;;;;;4908763;29;20070;-67
2022/07/03 13:05:20;;;;;;;4.25;1.80;;;23.40;97.60;;;;;;4904069;29;20052;-68
2022/07/03 13:07:49;;;;;;;4.35;1.90;;;24.10;98.40;;;;;;4904070;29;20063;-68
2022/07/03 13:10:20;;;;;;;4.75;1.80;;;24.60;97.30;;;;;;4905917;29;20044;-67